sensor_id;sensor_type;location;lat;lon;timestamp;P1;durP1;ratioP1;P2;durP2;ratioP2
13872;SDS011;7006;51.494;11.964;2023-12-14T00:01:45;28.57;;;11.87;;
13872;SDS011;7006;51.494;11.964;2023-12-14T00:04:14;22.77;;;12.60;;
13872;SDS011;7006;51.494;11.964;2023-12-14T00:06:42;21.80;;;11.93;;
13872;SDS011;7006;51.494;11.964;2023-12-14T00:09:11;24.70;;;12.30;;
13872;SDS011;7006;51.494;11.964;2023-12-14T00:11:42;23.97;;;12.73;;
13872;SDS011;7006;51.494;11.964;2023-12-14T00:14:11;23.73;;;11.83;;
13872;SDS011;7006;51.494;11.964;2023-12-14T00:16:39;22.70;;;12.70;;
13872;SDS011;7006;51.494;11.964;2023-12-14T00:19:10;24.17;;;13.13;;
13872;SDS011;7006;51.494;11.964;2023-12-14T00:21:39;20.97;;;12.87;;
13872;SDS011;7006;51.494;11.964;2023-12-14T00:24:08;26.60;;;13.63;;
13872;SDS011;7006;51.494;11.964;2023-12-14T00:26:36;22.73;;;14.17;;
13872;SDS011;7006;51.494;11.964;2023-12-14T00:29:07;23.50;;;12.90;;
13872;SDS011;7006;51.494;11.964;2023-12-14T00:31:36;23.70;;;13.73;;
13872;SDS011;7006;51.494;11.964;2023-12-14T00:34:04;24.30;;;13.67;;
13872;SDS011;7006;51.494;11.964;2023-12-14T00:36:33;23.83;;;13.10;;
13872;SDS011;7006;51.494;11.964;2023-12-14T00:39:02;27.20;;;15.30;;
13872;SDS011;7006;51.494;11.964;2023-12-14T00:41:30;24.20;;;15.50;;
13872;SDS011;7006;51.494;11.964;2023-12-14T00:43:59;26.77;;;15.40;;
13872;SDS011;7006;51.494;11.964;2023-12-14T00:46:30;33.57;;;18.20;;
13872;SDS011;7006;51.494;11.964;2023-12-14T00:48:59;24.53;;;16.53;;
13872;SDS011;7006;51.494;11.964;2023-12-14T00:51:28;22.83;;;15.30;;
13872;SDS011;7006;51.494;11.964;2023-12-14T00:53:57;25.03;;;14.50;;
13872;SDS011;7006;51.494;11.964;2023-12-14T00:56:25;26.90;;;15.40;;
13872;SDS011;7006;51.494;11.964;2023-12-14T00:58:54;24.83;;;14.60;;
13872;SDS011;7006;51.494;11.964;2023-12-14T01:01:23;23.97;;;15.10;;
13872;SDS011;7006;51.494;11.964;2023-12-14T01:03:54;31.80;;;16.47;;
13872;SDS011;7006;51.494;11.964;2023-12-14T01:06:24;29.83;;;15.70;;
13872;SDS011;7006;51.494;11.964;2023-12-14T01:08:53;30.30;;;15.07;;
13872;SDS011;7006;51.494;11.964;2023-12-14T01:11:21;26.10;;;15.27;;
13872;SDS011;7006;51.494;11.964;2023-12-14T01:13:50;23.47;;;15.40;;
13872;SDS011;7006;51.494;11.964;2023-12-14T01:16:18;31.17;;;15.17;;
13872;SDS011;7006;51.494;11.964;2023-12-14T01:18:47;34.10;;;15.53;;
13872;SDS011;7006;51.494;11.964;2023-12-14T01:21:18;28.53;;;15.70;;
13872;SDS011;7006;51.494;11.964;2023-12-14T01:23:46;27.67;;;15.53;;
13872;SDS011;7006;51.494;11.964;2023-12-14T01:26:15;30.87;;;15.30;;
13872;SDS011;7006;51.494;11.964;2023-12-14T01:28:43;30.00;;;15.40;;
13872;SDS011;7006;51.494;11.964;2023-12-14T01:31:12;32.03;;;16.57;;
13872;SDS011;7006;51.494;11.964;2023-12-14T01:33:40;31.03;;;16.83;;
13872;SDS011;7006;51.494;11.964;2023-12-14T01:36:11;35.30;;;17.33;;
13872;SDS011;7006;51.494;11.964;2023-12-14T01:38:42;33.53;;;17.60;;
13872;SDS011;7006;51.494;11.964;2023-12-14T01:41:10;31.00;;;16.43;;
13872;SDS011;7006;51.494;11.964;2023-12-14T01:43:39;32.20;;;16.97;;
13872;SDS011;7006;51.494;11.964;2023-12-14T01:46:07;30.20;;;16.30;;
13872;SDS011;7006;51.494;11.964;2023-12-14T01:48:36;31.80;;;15.43;;
13872;SDS011;7006;51.494;11.964;2023-12-14T01:51:05;31.50;;;16.77;;
13872;SDS011;7006;51.494;11.964;2023-12-14T01:53:33;31.63;;;17.57;;
13872;SDS011;7006;51.494;11.964;2023-12-14T01:56:05;27.60;;;15.13;;
13872;SDS011;7006;51.494;11.964;2023-12-14T01:58:37;31.20;;;14.97;;
13872;SDS011;7006;51.494;11.964;2023-12-14T02:01:06;30.50;;;16.40;;
13872;SDS011;7006;51.494;11.964;2023-12-14T02:03:43;28.80;;;15.83;;
13872;SDS011;7006;51.494;11.964;2023-12-14T02:06:12;33.27;;;16.17;;
13872;SDS011;7006;51.494;11.964;2023-12-14T02:08:41;28.40;;;15.60;;
13872;SDS011;7006;51.494;11.964;2023-12-14T02:11:12;28.37;;;16.10;;
13872;SDS011;7006;51.494;11.964;2023-12-14T02:13:41;32.70;;;17.37;;
13872;SDS011;7006;51.494;11.964;2023-12-14T02:16:10;30.23;;;16.20;;
13872;SDS011;7006;51.494;11.964;2023-12-14T02:18:40;35.20;;;18.20;;
13872;SDS011;7006;51.494;11.964;2023-12-14T02:21:09;29.07;;;18.00;;
13872;SDS011;7006;51.494;11.964;2023-12-14T02:23:41;29.50;;;16.47;;
13872;SDS011;7006;51.494;11.964;2023-12-14T02:26:11;39.27;;;17.70;;
13872;SDS011;7006;51.494;11.964;2023-12-14T02:28:39;28.60;;;15.90;;
13872;SDS011;7006;51.494;11.964;2023-12-14T02:31:08;31.70;;;17.00;;
13872;SDS011;7006;51.494;11.964;2023-12-14T02:33:37;33.13;;;17.23;;
13872;SDS011;7006;51.494;11.964;2023-12-14T02:36:06;27.50;;;14.83;;
13872;SDS011;7006;51.494;11.964;2023-12-14T02:38:37;30.00;;;16.13;;
13872;SDS011;7006;51.494;11.964;2023-12-14T02:41:05;28.27;;;16.10;;
13872;SDS011;7006;51.494;11.964;2023-12-14T02:43:34;27.70;;;16.00;;
13872;SDS011;7006;51.494;11.964;2023-12-14T02:46:03;32.13;;;16.57;;
13872;SDS011;7006;51.494;11.964;2023-12-14T02:48:32;30.70;;;15.77;;
13872;SDS011;7006;51.494;11.964;2023-12-14T02:51:00;27.57;;;15.37;;
13872;SDS011;7006;51.494;11.964;2023-12-14T02:53:29;22.73;;;12.87;;
13872;SDS011;7006;51.494;11.964;2023-12-14T02:56:03;23.47;;;12.80;;
13872;SDS011;7006;51.494;11.964;2023-12-14T02:58:32;20.50;;;11.10;;
13872;SDS011;7006;51.494;11.964;2023-12-14T03:01:01;19.97;;;12.10;;
13872;SDS011;7006;51.494;11.964;2023-12-14T03:03:29;20.20;;;11.83;;
13872;SDS011;7006;51.494;11.964;2023-12-14T03:05:58;18.20;;;10.60;;
13872;SDS011;7006;51.494;11.964;2023-12-14T03:08:26;18.10;;;10.97;;
13872;SDS011;7006;51.494;11.964;2023-12-14T03:10:55;15.30;;;9.53;;
13872;SDS011;7006;51.494;11.964;2023-12-14T03:13:26;16.63;;;9.63;;
13872;SDS011;7006;51.494;11.964;2023-12-14T03:15:55;15.60;;;10.10;;
13872;SDS011;7006;51.494;11.964;2023-12-14T03:18:25;15.50;;;10.13;;
13872;SDS011;7006;51.494;11.964;2023-12-14T03:20:53;13.67;;;9.50;;
13872;SDS011;7006;51.494;11.964;2023-12-14T03:23:22;13.13;;;9.40;;
13872;SDS011;7006;51.494;11.964;2023-12-14T03:25:50;14.87;;;9.77;;
13872;SDS011;7006;51.494;11.964;2023-12-14T03:28:19;17.23;;;11.07;;
13872;SDS011;7006;51.494;11.964;2023-12-14T03:30:50;16.57;;;10.30;;
13872;SDS011;7006;51.494;11.964;2023-12-14T03:33:19;19.00;;;10.30;;
13872;SDS011;7006;51.494;11.964;2023-12-14T03:35:47;12.80;;;8.83;;
13872;SDS011;7006;51.494;11.964;2023-12-14T03:38:16;14.93;;;9.17;;
13872;SDS011;7006;51.494;11.964;2023-12-14T03:40:44;16.67;;;9.37;;
13872;SDS011;7006;51.494;11.964;2023-12-14T03:43:13;15.90;;;8.83;;
13872;SDS011;7006;51.494;11.964;2023-12-14T03:45:41;14.43;;;9.40;;
13872;SDS011;7006;51.494;11.964;2023-12-14T03:48:12;12.43;;;8.83;;
13872;SDS011;7006;51.494;11.964;2023-12-14T03:50:41;14.77;;;8.87;;
13872;SDS011;7006;51.494;11.964;2023-12-14T03:53:09;14.00;;;9.20;;
13872;SDS011;7006;51.494;11.964;2023-12-14T03:55:38;15.80;;;8.80;;
13872;SDS011;7006;51.494;11.964;2023-12-14T03:58:06;13.93;;;8.80;;
13872;SDS011;7006;51.494;11.964;2023-12-14T04:00:35;13.27;;;8.57;;
13872;SDS011;7006;51.494;11.964;2023-12-14T04:03:04;13.97;;;9.10;;
13872;SDS011;7006;51.494;11.964;2023-12-14T04:05:35;14.20;;;8.70;;
13872;SDS011;7006;51.494;11.964;2023-12-14T04:08:04;14.33;;;9.30;;
13872;SDS011;7006;51.494;11.964;2023-12-14T04:10:32;15.90;;;10.20;;
13872;SDS011;7006;51.494;11.964;2023-12-14T04:13:01;16.77;;;10.83;;
13872;SDS011;7006;51.494;11.964;2023-12-14T04:15:29;15.40;;;10.37;;
13872;SDS011;7006;51.494;11.964;2023-12-14T04:17:58;18.57;;;10.00;;
13872;SDS011;7006;51.494;11.964;2023-12-14T04:20:26;17.90;;;11.40;;
13872;SDS011;7006;51.494;11.964;2023-12-14T04:22:57;17.57;;;11.00;;
13872;SDS011;7006;51.494;11.964;2023-12-14T04:25:26;18.50;;;11.60;;
13872;SDS011;7006;51.494;11.964;2023-12-14T04:27:54;19.70;;;12.07;;
13872;SDS011;7006;51.494;11.964;2023-12-14T04:30:23;17.40;;;10.80;;
13872;SDS011;7006;51.494;11.964;2023-12-14T04:32:52;20.00;;;11.33;;
13872;SDS011;7006;51.494;11.964;2023-12-14T04:35:20;17.90;;;11.70;;
13872;SDS011;7006;51.494;11.964;2023-12-14T04:37:49;19.47;;;12.27;;
13872;SDS011;7006;51.494;11.964;2023-12-14T04:40:20;17.57;;;12.57;;
13872;SDS011;7006;51.494;11.964;2023-12-14T04:42:48;15.03;;;10.57;;
13872;SDS011;7006;51.494;11.964;2023-12-14T04:45:17;15.93;;;10.40;;
13872;SDS011;7006;51.494;11.964;2023-12-14T04:47:45;12.70;;;9.20;;
13872;SDS011;7006;51.494;11.964;2023-12-14T04:50:14;13.70;;;9.60;;
13872;SDS011;7006;51.494;11.964;2023-12-14T04:52:43;14.43;;;9.30;;
13872;SDS011;7006;51.494;11.964;2023-12-14T04:55:11;14.23;;;8.60;;
13872;SDS011;7006;51.494;11.964;2023-12-14T04:57:42;13.00;;;8.30;;
13872;SDS011;7006;51.494;11.964;2023-12-14T05:00:14;13.57;;;8.50;;
13872;SDS011;7006;51.494;11.964;2023-12-14T05:02:45;11.43;;;8.17;;
13872;SDS011;7006;51.494;11.964;2023-12-14T05:05:15;11.53;;;7.80;;
13872;SDS011;7006;51.494;11.964;2023-12-14T05:07:44;11.10;;;7.80;;
13872;SDS011;7006;51.494;11.964;2023-12-14T05:10:12;10.83;;;7.93;;
13872;SDS011;7006;51.494;11.964;2023-12-14T05:12:44;13.07;;;7.87;;
13872;SDS011;7006;51.494;11.964;2023-12-14T05:15:12;11.07;;;7.47;;
13872;SDS011;7006;51.494;11.964;2023-12-14T05:17:41;13.23;;;8.73;;
13872;SDS011;7006;51.494;11.964;2023-12-14T05:20:10;11.40;;;7.77;;
13872;SDS011;7006;51.494;11.964;2023-12-14T05:22:39;10.83;;;7.97;;
13872;SDS011;7006;51.494;11.964;2023-12-14T05:25:08;12.23;;;8.57;;
13872;SDS011;7006;51.494;11.964;2023-12-14T05:27:37;13.23;;;8.33;;
13872;SDS011;7006;51.494;11.964;2023-12-14T05:30:09;13.80;;;9.03;;
13872;SDS011;7006;51.494;11.964;2023-12-14T05:32:38;12.83;;;8.47;;
13872;SDS011;7006;51.494;11.964;2023-12-14T05:35:07;16.30;;;10.50;;
13872;SDS011;7006;51.494;11.964;2023-12-14T05:37:36;13.60;;;10.00;;
13872;SDS011;7006;51.494;11.964;2023-12-14T05:40:07;16.77;;;10.63;;
13872;SDS011;7006;51.494;11.964;2023-12-14T05:42:37;17.47;;;11.57;;
13872;SDS011;7006;51.494;11.964;2023-12-14T05:45:06;15.23;;;10.20;;
13872;SDS011;7006;51.494;11.964;2023-12-14T05:47:38;16.37;;;11.00;;
13872;SDS011;7006;51.494;11.964;2023-12-14T05:50:07;15.90;;;9.70;;
13872;SDS011;7006;51.494;11.964;2023-12-14T05:52:36;14.00;;;9.10;;
13872;SDS011;7006;51.494;11.964;2023-12-14T05:55:07;14.10;;;9.67;;
13872;SDS011;7006;51.494;11.964;2023-12-14T05:57:36;16.50;;;10.10;;
13872;SDS011;7006;51.494;11.964;2023-12-14T06:00:05;17.70;;;10.10;;
13872;SDS011;7006;51.494;11.964;2023-12-14T06:02:38;17.30;;;8.87;;
13872;SDS011;7006;51.494;11.964;2023-12-14T06:05:07;16.50;;;10.00;;
13872;SDS011;7006;51.494;11.964;2023-12-14T06:07:36;18.67;;;11.33;;
13872;SDS011;7006;51.494;11.964;2023-12-14T06:10:05;29.80;;;18.90;;
13872;SDS011;7006;51.494;11.964;2023-12-14T06:12:35;22.10;;;13.33;;
13872;SDS011;7006;51.494;11.964;2023-12-14T06:15:06;23.77;;;11.77;;
13872;SDS011;7006;51.494;11.964;2023-12-14T06:17:36;24.37;;;12.83;;
13872;SDS011;7006;51.494;11.964;2023-12-14T06:20:08;23.03;;;12.90;;
13872;SDS011;7006;51.494;11.964;2023-12-14T06:22:38;21.63;;;13.60;;
13872;SDS011;7006;51.494;11.964;2023-12-14T06:25:08;23.00;;;14.20;;
13872;SDS011;7006;51.494;11.964;2023-12-14T06:27:36;21.90;;;13.03;;
13872;SDS011;7006;51.494;11.964;2023-12-14T06:30:06;20.70;;;13.10;;
13872;SDS011;7006;51.494;11.964;2023-12-14T06:32:41;24.77;;;14.00;;
13872;SDS011;7006;51.494;11.964;2023-12-14T06:35:11;21.50;;;13.03;;
13872;SDS011;7006;51.494;11.964;2023-12-14T06:37:40;22.17;;;13.10;;
13872;SDS011;7006;51.494;11.964;2023-12-14T06:40:10;28.90;;;15.60;;
13872;SDS011;7006;51.494;11.964;2023-12-14T06:42:39;26.10;;;15.87;;
13872;SDS011;7006;51.494;11.964;2023-12-14T06:45:08;22.00;;;14.30;;
13872;SDS011;7006;51.494;11.964;2023-12-14T06:47:38;23.37;;;13.07;;
13872;SDS011;7006;51.494;11.964;2023-12-14T06:50:11;26.40;;;13.80;;
13872;SDS011;7006;51.494;11.964;2023-12-14T06:52:40;24.17;;;13.80;;
13872;SDS011;7006;51.494;11.964;2023-12-14T06:55:09;23.93;;;14.00;;
13872;SDS011;7006;51.494;11.964;2023-12-14T06:57:40;23.20;;;12.27;;
13872;SDS011;7006;51.494;11.964;2023-12-14T07:00:09;23.90;;;13.33;;
13872;SDS011;7006;51.494;11.964;2023-12-14T07:02:41;20.37;;;11.90;;
13872;SDS011;7006;51.494;11.964;2023-12-14T07:05:10;22.30;;;13.63;;
13872;SDS011;7006;51.494;11.964;2023-12-14T07:07:38;23.27;;;13.33;;
13872;SDS011;7006;51.494;11.964;2023-12-14T07:10:07;22.23;;;12.93;;
13872;SDS011;7006;51.494;11.964;2023-12-14T07:12:36;20.10;;;11.53;;
13872;SDS011;7006;51.494;11.964;2023-12-14T07:15:05;22.53;;;12.40;;
13872;SDS011;7006;51.494;11.964;2023-12-14T07:17:34;23.00;;;13.67;;
13872;SDS011;7006;51.494;11.964;2023-12-14T07:20:06;21.40;;;12.67;;
13872;SDS011;7006;51.494;11.964;2023-12-14T07:22:36;19.20;;;12.33;;
13872;SDS011;7006;51.494;11.964;2023-12-14T07:25:05;21.40;;;11.90;;
13872;SDS011;7006;51.494;11.964;2023-12-14T07:27:34;19.40;;;12.57;;
13872;SDS011;7006;51.494;11.964;2023-12-14T07:30:03;17.77;;;11.03;;
13872;SDS011;7006;51.494;11.964;2023-12-14T07:32:34;15.80;;;10.13;;
13872;SDS011;7006;51.494;11.964;2023-12-14T07:35:03;17.90;;;11.13;;
13872;SDS011;7006;51.494;11.964;2023-12-14T07:37:35;16.60;;;11.20;;
13872;SDS011;7006;51.494;11.964;2023-12-14T07:40:04;16.07;;;10.70;;
13872;SDS011;7006;51.494;11.964;2023-12-14T07:42:34;16.97;;;10.70;;
13872;SDS011;7006;51.494;11.964;2023-12-14T07:45:03;15.77;;;10.33;;
13872;SDS011;7006;51.494;11.964;2023-12-14T07:47:33;18.70;;;10.93;;
13872;SDS011;7006;51.494;11.964;2023-12-14T07:50:02;16.90;;;9.80;;
13872;SDS011;7006;51.494;11.964;2023-12-14T07:52:34;15.30;;;10.17;;
13872;SDS011;7006;51.494;11.964;2023-12-14T07:55:03;13.30;;;9.10;;
13872;SDS011;7006;51.494;11.964;2023-12-14T07:57:32;13.93;;;9.53;;
13872;SDS011;7006;51.494;11.964;2023-12-14T08:00:01;12.80;;;9.27;;
13872;SDS011;7006;51.494;11.964;2023-12-14T08:02:30;12.83;;;8.73;;
13872;SDS011;7006;51.494;11.964;2023-12-14T08:05:00;12.63;;;9.27;;
13872;SDS011;7006;51.494;11.964;2023-12-14T08:07:29;12.60;;;8.20;;
13872;SDS011;7006;51.494;11.964;2023-12-14T08:10:01;12.03;;;8.17;;
13872;SDS011;7006;51.494;11.964;2023-12-14T08:12:30;15.87;;;10.90;;
13872;SDS011;7006;51.494;11.964;2023-12-14T08:14:58;13.83;;;10.00;;
13872;SDS011;7006;51.494;11.964;2023-12-14T08:17:27;17.70;;;13.00;;
13872;SDS011;7006;51.494;11.964;2023-12-14T08:19:55;35.37;;;23.80;;
13872;SDS011;7006;51.494;11.964;2023-12-14T08:22:24;17.00;;;10.70;;
13872;SDS011;7006;51.494;11.964;2023-12-14T08:24:53;16.80;;;10.20;;
13872;SDS011;7006;51.494;11.964;2023-12-14T08:27:25;14.73;;;9.47;;
13872;SDS011;7006;51.494;11.964;2023-12-14T08:29:54;11.73;;;7.73;;
13872;SDS011;7006;51.494;11.964;2023-12-14T08:32:23;15.00;;;9.27;;
13872;SDS011;7006;51.494;11.964;2023-12-14T08:34:52;10.80;;;7.43;;
13872;SDS011;7006;51.494;11.964;2023-12-14T08:37:20;16.13;;;10.23;;
13872;SDS011;7006;51.494;11.964;2023-12-14T08:39:49;16.00;;;10.03;;
13872;SDS011;7006;51.494;11.964;2023-12-14T08:42:17;16.03;;;10.23;;
13872;SDS011;7006;51.494;11.964;2023-12-14T08:44:48;15.10;;;10.63;;
13872;SDS011;7006;51.494;11.964;2023-12-14T08:47:17;15.57;;;10.03;;
13872;SDS011;7006;51.494;11.964;2023-12-14T08:49:45;15.57;;;10.50;;
13872;SDS011;7006;51.494;11.964;2023-12-14T08:52:14;16.03;;;10.70;;
13872;SDS011;7006;51.494;11.964;2023-12-14T08:54:43;13.60;;;9.57;;
13872;SDS011;7006;51.494;11.964;2023-12-14T08:57:11;14.80;;;9.33;;
13872;SDS011;7006;51.494;11.964;2023-12-14T08:59:40;13.90;;;9.30;;
13872;SDS011;7006;51.494;11.964;2023-12-14T09:02:11;14.97;;;9.70;;
13872;SDS011;7006;51.494;11.964;2023-12-14T09:04:40;13.00;;;9.70;;
13872;SDS011;7006;51.494;11.964;2023-12-14T09:07:09;12.90;;;8.90;;
13872;SDS011;7006;51.494;11.964;2023-12-14T09:09:37;13.90;;;9.37;;
13872;SDS011;7006;51.494;11.964;2023-12-14T09:12:06;13.80;;;8.73;;
13872;SDS011;7006;51.494;11.964;2023-12-14T09:14:35;13.20;;;8.37;;
13872;SDS011;7006;51.494;11.964;2023-12-14T09:17:04;12.93;;;8.03;;
13872;SDS011;7006;51.494;11.964;2023-12-14T09:19:35;12.93;;;7.90;;
13872;SDS011;7006;51.494;11.964;2023-12-14T09:22:04;14.33;;;8.87;;
13872;SDS011;7006;51.494;11.964;2023-12-14T09:24:32;13.33;;;8.60;;
13872;SDS011;7006;51.494;11.964;2023-12-14T09:27:01;15.37;;;9.70;;
13872;SDS011;7006;51.494;11.964;2023-12-14T09:29:29;16.03;;;9.10;;
13872;SDS011;7006;51.494;11.964;2023-12-14T09:31:58;15.37;;;9.40;;
13872;SDS011;7006;51.494;11.964;2023-12-14T09:34:27;13.60;;;9.47;;
13872;SDS011;7006;51.494;11.964;2023-12-14T09:36:58;17.57;;;11.20;;
13872;SDS011;7006;51.494;11.964;2023-12-14T09:39:26;16.10;;;10.07;;
13872;SDS011;7006;51.494;11.964;2023-12-14T09:42:00;16.87;;;10.13;;
13872;SDS011;7006;51.494;11.964;2023-12-14T09:44:30;11.90;;;8.27;;
13872;SDS011;7006;51.494;11.964;2023-12-14T09:46:59;13.60;;;8.70;;
13872;SDS011;7006;51.494;11.964;2023-12-14T09:49:28;14.53;;;8.97;;
13872;SDS011;7006;51.494;11.964;2023-12-14T09:52:00;12.57;;;8.47;;
13872;SDS011;7006;51.494;11.964;2023-12-14T09:54:29;15.40;;;9.30;;
13872;SDS011;7006;51.494;11.964;2023-12-14T09:56:57;17.10;;;10.17;;
13872;SDS011;7006;51.494;11.964;2023-12-14T09:59:26;19.13;;;10.43;;
13872;SDS011;7006;51.494;11.964;2023-12-14T10:01:59;15.20;;;9.63;;
13872;SDS011;7006;51.494;11.964;2023-12-14T10:04:37;16.73;;;9.67;;
13872;SDS011;7006;51.494;11.964;2023-12-14T10:07:08;15.90;;;9.10;;
13872;SDS011;7006;51.494;11.964;2023-12-14T10:09:37;15.03;;;9.83;;
13872;SDS011;7006;51.494;11.964;2023-12-14T10:12:06;15.97;;;10.23;;
13872;SDS011;7006;51.494;11.964;2023-12-14T10:14:36;15.50;;;10.00;;
13872;SDS011;7006;51.494;11.964;2023-12-14T10:17:16;16.37;;;10.00;;
13872;SDS011;7006;51.494;11.964;2023-12-14T10:19:45;14.60;;;9.90;;
13872;SDS011;7006;51.494;11.964;2023-12-14T10:22:17;15.50;;;9.20;;
13872;SDS011;7006;51.494;11.964;2023-12-14T10:24:46;14.60;;;9.53;;
13872;SDS011;7006;51.494;11.964;2023-12-14T10:27:15;18.63;;;11.73;;
13872;SDS011;7006;51.494;11.964;2023-12-14T10:29:44;12.90;;;8.43;;
13872;SDS011;7006;51.494;11.964;2023-12-14T10:32:13;14.33;;;9.97;;
13872;SDS011;7006;51.494;11.964;2023-12-14T10:34:41;13.43;;;9.60;;
13872;SDS011;7006;51.494;11.964;2023-12-14T10:37:10;14.30;;;9.70;;
13872;SDS011;7006;51.494;11.964;2023-12-14T10:39:43;16.50;;;10.30;;
13872;SDS011;7006;51.494;11.964;2023-12-14T10:42:11;18.10;;;11.40;;
13872;SDS011;7006;51.494;11.964;2023-12-14T10:44:42;14.50;;;10.10;;
13872;SDS011;7006;51.494;11.964;2023-12-14T10:47:10;25.43;;;17.30;;
13872;SDS011;7006;51.494;11.964;2023-12-14T10:49:40;21.67;;;15.50;;
13872;SDS011;7006;51.494;11.964;2023-12-14T10:52:10;22.13;;;14.10;;
13872;SDS011;7006;51.494;11.964;2023-12-14T10:54:39;16.93;;;12.20;;
13872;SDS011;7006;51.494;11.964;2023-12-14T10:57:11;16.83;;;12.77;;
13872;SDS011;7006;51.494;11.964;2023-12-14T10:59:41;15.37;;;11.00;;
13872;SDS011;7006;51.494;11.964;2023-12-14T11:02:10;17.40;;;11.90;;
13872;SDS011;7006;51.494;11.964;2023-12-14T11:04:55;17.87;;;13.10;;
13872;SDS011;7006;51.494;11.964;2023-12-14T11:10:14;19.73;;;11.87;;
13872;SDS011;7006;51.494;11.964;2023-12-14T11:12:56;16.17;;;11.50;;
13872;SDS011;7006;51.494;11.964;2023-12-14T11:15:28;16.57;;;10.90;;
13872;SDS011;7006;51.494;11.964;2023-12-14T11:20:50;20.13;;;13.00;;
13872;SDS011;7006;51.494;11.964;2023-12-14T11:23:26;14.50;;;9.63;;
13872;SDS011;7006;51.494;11.964;2023-12-14T11:26:08;13.73;;;9.30;;
13872;SDS011;7006;51.494;11.964;2023-12-14T11:28:38;14.77;;;8.80;;
13872;SDS011;7006;51.494;11.964;2023-12-14T11:31:09;13.20;;;7.60;;
13872;SDS011;7006;51.494;11.964;2023-12-14T11:33:38;11.80;;;7.43;;
13872;SDS011;7006;51.494;11.964;2023-12-14T11:36:07;10.67;;;6.73;;
13872;SDS011;7006;51.494;11.964;2023-12-14T11:38:37;11.97;;;6.63;;
13872;SDS011;7006;51.494;11.964;2023-12-14T11:41:08;12.53;;;7.80;;
13872;SDS011;7006;51.494;11.964;2023-12-14T11:43:40;10.90;;;7.13;;
13872;SDS011;7006;51.494;11.964;2023-12-14T11:46:09;13.13;;;8.00;;
13872;SDS011;7006;51.494;11.964;2023-12-14T11:48:39;11.40;;;7.90;;
13872;SDS011;7006;51.494;11.964;2023-12-14T11:51:07;13.63;;;8.40;;
13872;SDS011;7006;51.494;11.964;2023-12-14T11:53:36;12.50;;;7.87;;
13872;SDS011;7006;51.494;11.964;2023-12-14T11:56:08;12.43;;;8.60;;
13872;SDS011;7006;51.494;11.964;2023-12-14T11:58:40;12.30;;;8.50;;
13872;SDS011;7006;51.494;11.964;2023-12-14T12:01:13;15.27;;;9.07;;
13872;SDS011;7006;51.494;11.964;2023-12-14T12:03:42;14.57;;;9.47;;
13872;SDS011;7006;51.494;11.964;2023-12-14T12:06:19;13.73;;;9.00;;
13872;SDS011;7006;51.494;11.964;2023-12-14T12:08:49;16.70;;;8.80;;
13872;SDS011;7006;51.494;11.964;2023-12-14T12:11:21;12.93;;;8.60;;
13872;SDS011;7006;51.494;11.964;2023-12-14T12:13:52;13.23;;;8.17;;
13872;SDS011;7006;51.494;11.964;2023-12-14T12:16:19;15.30;;;8.53;;
13872;SDS011;7006;51.494;11.964;2023-12-14T12:18:48;12.93;;;8.20;;
13872;SDS011;7006;51.494;11.964;2023-12-14T12:21:18;13.77;;;8.67;;
13872;SDS011;7006;51.494;11.964;2023-12-14T12:23:46;15.23;;;10.20;;
13872;SDS011;7006;51.494;11.964;2023-12-14T12:26:15;18.17;;;11.07;;
13872;SDS011;7006;51.494;11.964;2023-12-14T12:28:47;14.70;;;9.83;;
13872;SDS011;7006;51.494;11.964;2023-12-14T12:31:15;13.90;;;9.13;;
13872;SDS011;7006;51.494;11.964;2023-12-14T12:33:44;13.80;;;9.47;;
13872;SDS011;7006;51.494;11.964;2023-12-14T12:36:13;17.17;;;10.53;;
13872;SDS011;7006;51.494;11.964;2023-12-14T12:38:41;16.33;;;10.63;;
13872;SDS011;7006;51.494;11.964;2023-12-14T12:41:10;16.07;;;9.90;;
13872;SDS011;7006;51.494;11.964;2023-12-14T12:43:39;15.00;;;9.43;;
13872;SDS011;7006;51.494;11.964;2023-12-14T12:46:11;11.50;;;8.33;;
13872;SDS011;7006;51.494;11.964;2023-12-14T12:48:40;14.60;;;9.67;;
13872;SDS011;7006;51.494;11.964;2023-12-14T12:51:09;13.80;;;9.60;;
13872;SDS011;7006;51.494;11.964;2023-12-14T12:53:38;14.10;;;9.10;;
13872;SDS011;7006;51.494;11.964;2023-12-14T12:56:07;14.77;;;9.57;;
13872;SDS011;7006;51.494;11.964;2023-12-14T12:58:35;21.10;;;12.77;;
13872;SDS011;7006;51.494;11.964;2023-12-14T13:01:04;20.30;;;12.07;;
13872;SDS011;7006;51.494;11.964;2023-12-14T13:03:36;15.97;;;10.10;;
13872;SDS011;7006;51.494;11.964;2023-12-14T13:06:04;14.60;;;9.73;;
13872;SDS011;7006;51.494;11.964;2023-12-14T13:08:33;14.70;;;9.67;;
13872;SDS011;7006;51.494;11.964;2023-12-14T13:11:03;11.90;;;9.00;;
13872;SDS011;7006;51.494;11.964;2023-12-14T13:13:32;12.90;;;8.27;;
13872;SDS011;7006;51.494;11.964;2023-12-14T13:16:00;11.43;;;7.87;;
13872;SDS011;7006;51.494;11.964;2023-12-14T13:18:29;11.40;;;7.80;;
13872;SDS011;7006;51.494;11.964;2023-12-14T13:21:00;11.97;;;8.90;;
13872;SDS011;7006;51.494;11.964;2023-12-14T13:23:28;13.47;;;7.93;;
13872;SDS011;7006;51.494;11.964;2023-12-14T13:25:58;12.67;;;8.10;;
13872;SDS011;7006;51.494;11.964;2023-12-14T13:28:26;11.43;;;7.50;;
13872;SDS011;7006;51.494;11.964;2023-12-14T13:30:55;13.30;;;8.03;;
13872;SDS011;7006;51.494;11.964;2023-12-14T13:33:23;10.63;;;7.13;;
13872;SDS011;7006;51.494;11.964;2023-12-14T13:35:52;12.80;;;7.90;;
13872;SDS011;7006;51.494;11.964;2023-12-14T13:38:23;12.27;;;7.60;;
13872;SDS011;7006;51.494;11.964;2023-12-14T13:40:51;11.77;;;8.53;;
13872;SDS011;7006;51.494;11.964;2023-12-14T13:43:20;14.67;;;10.47;;
13872;SDS011;7006;51.494;11.964;2023-12-14T13:45:48;15.80;;;11.40;;
13872;SDS011;7006;51.494;11.964;2023-12-14T13:48:18;15.57;;;9.20;;
13872;SDS011;7006;51.494;11.964;2023-12-14T13:50:47;15.40;;;10.37;;
13872;SDS011;7006;51.494;11.964;2023-12-14T13:53:16;12.90;;;9.40;;
13872;SDS011;7006;51.494;11.964;2023-12-14T13:55:48;12.97;;;8.10;;
13872;SDS011;7006;51.494;11.964;2023-12-14T13:58:18;12.90;;;8.43;;
13872;SDS011;7006;51.494;11.964;2023-12-14T14:00:47;16.80;;;9.67;;
13872;SDS011;7006;51.494;11.964;2023-12-14T14:03:15;13.90;;;8.50;;
13872;SDS011;7006;51.494;11.964;2023-12-14T14:05:44;11.77;;;7.60;;
13872;SDS011;7006;51.494;11.964;2023-12-14T14:08:13;10.47;;;7.17;;
13872;SDS011;7006;51.494;11.964;2023-12-14T14:10:42;10.50;;;7.43;;
13872;SDS011;7006;51.494;11.964;2023-12-14T14:13:13;9.93;;;6.77;;
13872;SDS011;7006;51.494;11.964;2023-12-14T14:15:41;10.97;;;7.77;;
13872;SDS011;7006;51.494;11.964;2023-12-14T14:18:10;14.80;;;7.20;;
13872;SDS011;7006;51.494;11.964;2023-12-14T14:20:39;9.20;;;5.97;;
13872;SDS011;7006;51.494;11.964;2023-12-14T14:23:07;8.80;;;6.60;;
13872;SDS011;7006;51.494;11.964;2023-12-14T14:25:36;9.70;;;6.07;;
13872;SDS011;7006;51.494;11.964;2023-12-14T14:28:04;9.47;;;6.13;;
13872;SDS011;7006;51.494;11.964;2023-12-14T14:30:35;9.10;;;6.17;;
13872;SDS011;7006;51.494;11.964;2023-12-14T14:33:04;10.10;;;6.37;;
13872;SDS011;7006;51.494;11.964;2023-12-14T14:35:32;10.57;;;6.50;;
13872;SDS011;7006;51.494;11.964;2023-12-14T14:38:02;10.50;;;6.83;;
13872;SDS011;7006;51.494;11.964;2023-12-14T14:40:31;18.10;;;11.33;;
13872;SDS011;7006;51.494;11.964;2023-12-14T14:43:00;11.03;;;7.30;;
13872;SDS011;7006;51.494;11.964;2023-12-14T14:45:28;9.93;;;6.30;;
13872;SDS011;7006;51.494;11.964;2023-12-14T14:47:59;7.50;;;5.80;;